createdAt,value
2019-04-19T00:01:01.386Z,14.26
2019-04-19T00:03:30.497Z,14.40
2019-04-19T00:06:19.056Z,14.62
2019-04-19T00:09:01.466Z,14.71
2019-04-19T00:11:21.068Z,14.68
2019-04-19T00:13:38.913Z,14.64
2019-04-19T00:16:06.754Z,14.61
2019-04-19T00:18:38.959Z,14.53
2019-04-19T00:21:18.306Z,14.49
2019-04-19T00:23:36.620Z,14.58
2019-04-19T00:25:59.892Z,14.55
2019-04-19T00:28:36.707Z,14.32
2019-04-19T00:31:13.365Z,14.11
2019-04-19T00:33:32.831Z,13.82
2019-04-19T00:35:53.704Z,13.59
2019-04-19T00:38:40.510Z,13.44
2019-04-19T00:41:14.172Z,13.42
2019-04-19T00:43:57.644Z,13.58
2019-04-19T00:46:33.993Z,13.46
2019-04-19T00:48:58.493Z,13.45
2019-04-19T00:51:22.954Z,13.29
2019-04-19T00:53:58.848Z,13.30
2019-04-19T00:56:16.771Z,13.26
2019-04-19T00:58:48.449Z,13.17
2019-04-19T01:01:17.155Z,13.22
2019-04-19T01:03:43.649Z,13.43
2019-04-19T01:06:10.649Z,13.42
2019-04-19T01:08:49.062Z,13.13
2019-04-19T01:11:20.982Z,13.02
2019-04-19T01:13:50.610Z,12.92
2019-04-19T01:16:18.714Z,12.80
2019-04-19T01:18:44.408Z,12.81
2019-04-19T01:21:04.961Z,12.92
2019-04-19T01:23:40.593Z,12.99
2019-04-19T01:26:05.285Z,13.00
2019-04-19T01:28:30.582Z,13.07
2019-04-19T01:30:58.956Z,13.09
2019-04-19T01:33:35.484Z,13.25
2019-04-19T01:36:00.078Z,13.40
2019-04-19T01:38:27.381Z,13.54
2019-04-19T01:41:12.090Z,13.61
2019-04-19T01:43:49.766Z,13.44
2019-04-19T01:46:43.690Z,13.35
2019-04-19T01:49:22.640Z,13.33
2019-04-19T01:52:09.807Z,13.41
2019-04-19T01:54:33.375Z,13.37
2019-04-19T01:56:55.159Z,13.35
2019-04-19T01:59:31.503Z,13.30
2019-04-19T02:02:01.770Z,13.25
2019-04-19T02:04:28.182Z,13.27
2019-04-19T02:06:54.640Z,13.29
2019-04-19T02:09:31.321Z,13.11
2019-04-19T02:12:11.050Z,13.19
2019-04-19T02:14:35.507Z,13.23
2019-04-19T02:16:59.154Z,13.22
2019-04-19T02:19:25.128Z,13.22
2019-04-19T02:21:51.045Z,13.04
2019-04-19T02:24:28.153Z,13.02
2019-04-19T02:26:54.013Z,12.86
2019-04-19T02:29:21.823Z,12.84
2019-04-19T02:32:13.642Z,12.69
2019-04-19T02:34:42.459Z,12.62
2019-04-19T02:37:16.278Z,12.73
2019-04-19T02:39:47.306Z,12.83
2019-04-19T02:44:55.284Z,12.83
2019-04-19T02:52:15.099Z,12.52
2019-04-19T02:54:49.860Z,12.54
2019-04-19T02:57:48.210Z,12.60
2019-04-19T03:00:24.793Z,12.59
2019-04-19T03:05:38.372Z,12.56
2019-04-19T03:07:32.176Z,12.52
2019-04-19T03:10:00.009Z,12.43
2019-04-19T03:12:48.272Z,12.37
2019-04-19T03:15:09.556Z,12.39
2019-04-19T03:17:45.850Z,12.49
2019-04-19T03:20:15.213Z,12.46
2019-04-19T03:22:39.177Z,12.45
2019-04-19T03:25:10.870Z,12.39
2019-04-19T03:27:28.502Z,12.07
2019-04-19T03:30:04.519Z,11.99
2019-04-19T03:33:00.414Z,12.04
2019-04-19T03:37:30.590Z,11.95
2019-04-19T03:40:12.893Z,11.89
2019-04-19T03:43:10.656Z,11.98
2019-04-19T03:45:47.416Z,12.05
2019-04-19T03:48:10.023Z,12.00
2019-04-19T03:50:37.386Z,11.95
2019-04-19T03:53:06.883Z,12.00
2019-04-19T03:55:29.890Z,12.04
2019-04-19T03:57:52.294Z,12.14
2019-04-19T04:00:13.313Z,12.12
2019-04-19T04:02:43.399Z,12.21
2019-04-19T04:05:11.141Z,12.19
2019-04-19T04:07:38.947Z,12.22
2019-04-19T04:10:23.810Z,12.19
2019-04-19T04:13:09.278Z,12.17
2019-04-19T04:16:03.519Z,12.10
2019-04-19T04:18:15.749Z,12.03
2019-04-19T04:20:47.623Z,11.87
2019-04-19T04:23:17.934Z,11.93
2019-04-19T04:25:48.445Z,11.89
2019-04-19T04:28:23.557Z,11.79
2019-04-19T04:30:51.689Z,11.78
2019-04-19T04:33:21.681Z,11.76
2019-04-19T04:35:48.386Z,11.65
2019-04-19T04:38:11.099Z,11.55
2019-04-19T04:40:33.729Z,11.60
2019-04-19T04:43:15.284Z,11.55
2019-04-19T04:46:05.245Z,11.59
2019-04-19T04:48:51.046Z,11.69
2019-04-19T04:51:22.078Z,11.73
2019-04-19T04:53:51.110Z,11.74
2019-04-19T04:56:25.992Z,11.62
2019-04-19T04:58:52.446Z,11.56
2019-04-19T05:01:29.049Z,11.55
2019-04-19T05:04:07.427Z,11.54
2019-04-19T05:06:36.438Z,11.57
2019-04-19T05:09:05.155Z,11.49
2019-04-19T05:11:33.931Z,11.55
2019-04-19T05:14:05.907Z,11.53
2019-04-19T05:16:41.732Z,11.35
2019-04-19T05:18:58.411Z,11.40
2019-04-19T05:21:28.580Z,11.42
2019-04-19T05:24:05.425Z,11.46
2019-04-19T05:26:43.660Z,11.43
2019-04-19T05:28:54.347Z,11.51
2019-04-19T05:31:21.621Z,11.50
2019-04-19T05:33:53.854Z,11.47
2019-04-19T05:36:29.271Z,11.52
2019-04-19T05:39:17.224Z,11.58
2019-04-19T05:42:04.077Z,11.69
2019-04-19T05:45:00.093Z,11.77
2019-04-19T05:47:20.734Z,11.81
2019-04-19T05:49:45.291Z,11.87
2019-04-19T05:52:19.216Z,11.97
2019-04-19T05:54:27.878Z,12.08
2019-04-19T05:56:59.424Z,12.21
2019-04-19T06:02:07.511Z,12.42
2019-04-19T06:04:38.748Z,12.52
2019-04-19T06:07:09.460Z,12.55
2019-04-19T06:09:23.969Z,12.64
2019-04-19T06:11:51.404Z,12.80
2019-04-19T06:14:46.482Z,12.94
2019-04-19T06:17:24.995Z,13.02
2019-04-19T06:19:50.422Z,13.07
2019-04-19T06:22:20.214Z,13.20
2019-04-19T06:24:51.990Z,13.33
2019-04-19T06:27:25.235Z,13.43
2019-04-19T06:30:03.640Z,13.52
2019-04-19T06:32:20.869Z,13.63
2019-04-19T06:34:46.694Z,13.74
2019-04-19T06:37:08.390Z,13.85
2019-04-19T06:39:31.714Z,14.02
2019-04-19T06:42:04.344Z,14.20
2019-04-19T06:44:50.649Z,14.33
2019-04-19T06:47:10.569Z,14.48
2019-04-19T06:49:29.434Z,14.63
2019-04-19T06:52:03.858Z,14.77
2019-04-19T06:54:33.138Z,14.93
2019-04-19T06:57:07.657Z,15.01
2019-04-19T06:59:39.261Z,15.12
2019-04-19T07:01:55.851Z,15.23
2019-04-19T07:04:21.156Z,15.32
2019-04-19T07:07:13.313Z,15.32
2019-04-19T07:09:56.561Z,15.39
2019-04-19T07:12:06.719Z,15.47
2019-04-19T07:14:20.640Z,15.35
2019-04-19T07:17:02.645Z,15.45
2019-04-19T07:19:35.002Z,15.48
2019-04-19T07:21:55.254Z,15.47
2019-04-19T07:24:33.600Z,15.59
2019-04-19T07:26:58.073Z,15.80
2019-04-19T07:29:08.324Z,15.92
2019-04-19T07:31:37.020Z,16.10
2019-04-19T07:34:13.595Z,16.10
2019-04-19T07:36:54.600Z,15.96
2019-04-19T07:39:22.834Z,16.09
2019-04-19T07:41:45.325Z,16.12
2019-04-19T07:44:41.112Z,16.27
2019-04-19T07:47:27.691Z,16.41
2019-04-19T07:49:51.403Z,16.51
2019-04-19T07:52:19.107Z,16.51
2019-04-19T07:54:40.727Z,16.68
2019-04-19T07:57:45.743Z,16.86
2019-04-19T08:00:00.762Z,16.79
2019-04-19T08:02:36.082Z,16.90
2019-04-19T08:05:06.169Z,17.06
2019-04-19T08:10:03.479Z,16.92
2019-04-19T08:12:30.690Z,16.98
2019-04-19T08:29:38.388Z,17.66
2019-04-19T08:31:57.920Z,17.71
2019-04-19T08:34:28.319Z,17.86
2019-04-19T08:36:59.453Z,17.99
2019-04-19T08:40:40.878Z,18.18
2019-04-19T08:42:10.746Z,18.08
2019-04-19T08:44:38.658Z,18.27
2019-04-19T08:47:21.417Z,18.42
2019-04-19T08:49:47.738Z,18.51
2019-04-19T08:52:25.711Z,18.78
2019-04-19T08:55:09.889Z,19.00
2019-04-19T08:57:22.620Z,19.17
2019-04-19T09:00:19.104Z,18.93
2019-04-19T09:02:34.095Z,18.98
2019-04-19T09:05:03.992Z,19.17
2019-04-19T09:10:27.619Z,19.31
2019-04-19T09:12:31.237Z,19.44
2019-04-19T09:15:00.929Z,19.54
2019-04-19T09:17:43.246Z,19.46
2019-04-19T09:20:14.124Z,19.49
2019-04-19T09:22:27.650Z,19.64
2019-04-19T09:24:48.031Z,19.85
2019-04-19T09:27:32.906Z,19.88
2019-04-19T09:30:13.692Z,19.80
2019-04-19T09:32:11.963Z,19.92
2019-04-19T09:34:34.962Z,20.07
2019-04-19T09:37:11.697Z,20.10
2019-04-19T09:39:44.173Z,20.17
2019-04-19T09:42:13.891Z,20.32
2019-04-19T09:44:43.092Z,20.46
2019-04-19T09:47:05.589Z,20.58
2019-04-19T09:49:51.414Z,20.74
2019-04-19T09:52:27.884Z,20.82
2019-04-19T09:54:55.553Z,20.87
2019-04-19T09:57:13.177Z,20.95
2019-04-19T09:59:32.845Z,20.91
2019-04-19T10:02:00.637Z,20.81
2019-04-19T10:04:25.162Z,20.85
2019-04-19T10:06:54.825Z,20.78
2019-04-19T10:09:22.739Z,20.87
2019-04-19T10:11:50.919Z,20.80
2019-04-19T10:14:19.248Z,20.55
2019-04-19T10:16:52.731Z,20.86
2019-04-19T10:19:19.461Z,20.96
2019-04-19T10:22:10.022Z,21.25
2019-04-19T10:24:36.938Z,21.31
2019-04-19T10:27:17.653Z,21.14
2019-04-19T10:29:47.019Z,20.88
2019-04-19T10:32:22.931Z,21.09
2019-04-19T10:34:52.536Z,20.99
2019-04-19T10:37:20.273Z,21.06
2019-04-19T10:39:48.194Z,21.37
2019-04-19T10:42:18.599Z,21.56
2019-04-19T10:45:00.503Z,21.88
2019-04-19T10:47:29.309Z,22.13
2019-04-19T10:50:12.051Z,22.30
2019-04-19T10:52:26.073Z,22.51
2019-04-19T10:54:53.483Z,22.60
2019-04-19T10:57:21.341Z,22.71
2019-04-19T10:59:50.129Z,22.79
2019-04-19T11:02:21.193Z,22.88
2019-04-19T11:04:48.904Z,22.94
2019-04-19T11:07:23.552Z,23.02
2019-04-19T11:09:51.375Z,23.16
2019-04-19T11:12:18.166Z,23.09
2019-04-19T11:14:46.116Z,23.19
2019-04-19T11:17:15.935Z,23.30
2019-04-19T11:19:58.865Z,23.45
2019-04-19T11:22:12.037Z,23.48
2019-04-19T11:24:39.193Z,23.51
2019-04-19T11:27:07.195Z,23.69
2019-04-19T11:29:34.528Z,23.76
2019-04-19T11:32:28.222Z,23.89
2019-04-19T11:34:55.690Z,23.93
2019-04-19T11:37:23.422Z,23.48
2019-04-19T11:39:51.007Z,23.78
2019-04-19T11:42:19.162Z,23.61
2019-04-19T11:44:46.180Z,23.38
2019-04-19T11:47:13.699Z,23.40
2019-04-19T11:49:42.689Z,23.78
2019-04-19T11:52:16.813Z,24.19
2019-04-19T11:54:44.267Z,24.31
2019-04-19T11:57:24.157Z,24.31
2019-04-19T11:59:57.429Z,24.43
2019-04-19T12:02:35.904Z,24.70
2019-04-19T12:05:12.809Z,24.09
2019-04-19T12:07:34.730Z,23.97
2019-04-19T12:10:03.064Z,23.81
2019-04-19T12:12:30.859Z,23.68
2019-04-19T12:14:57.837Z,23.90
2019-04-19T12:17:29.210Z,24.45
2019-04-19T12:20:00.815Z,24.93
2019-04-19T12:22:25.370Z,25.21
2019-04-19T12:24:54.956Z,25.37
2019-04-19T12:27:23.509Z,25.52
2019-04-19T12:29:53.308Z,25.60
2019-04-19T12:32:21.655Z,25.61
2019-04-19T12:34:48.730Z,25.72
2019-04-19T12:37:19.449Z,25.81
2019-04-19T12:39:52.847Z,25.89
2019-04-19T12:42:35.923Z,26.15
2019-04-19T12:45:08.048Z,26.41
2019-04-19T12:47:35.452Z,26.41
2019-04-19T12:50:06.958Z,26.51
2019-04-19T12:52:40.054Z,26.46
2019-04-19T12:55:08.200Z,26.51
2019-04-19T12:57:41.595Z,26.71
2019-04-19T13:00:09.924Z,26.94
2019-04-19T13:02:51.795Z,26.90
2019-04-19T13:05:28.242Z,26.90
2019-04-19T13:07:56.764Z,27.15
2019-04-19T13:10:24.897Z,27.26
2019-04-19T13:12:52.054Z,27.50
2019-04-19T13:15:23.790Z,27.60
2019-04-19T13:17:52.156Z,27.55
2019-04-19T13:20:25.808Z,27.60
2019-04-19T13:22:48.525Z,27.75
2019-04-19T13:25:17.295Z,27.56
2019-04-19T13:27:54.241Z,27.37
2019-04-19T13:30:29.520Z,27.48
2019-04-19T13:32:49.526Z,27.64
2019-04-19T13:35:17.101Z,27.88
2019-04-19T13:38:11.194Z,28.14
2019-04-19T13:41:00.812Z,28.15
2019-04-19T13:43:31.198Z,28.08
2019-04-19T13:45:58.898Z,28.17
2019-04-19T13:48:28.269Z,28.45
2019-04-19T13:50:56.290Z,28.56
2019-04-19T13:53:24.670Z,28.36
2019-04-19T13:55:54.862Z,24.30
2019-04-19T13:58:22.059Z,28.54
2019-04-19T14:00:54.403Z,28.38
2019-04-19T14:03:21.480Z,28.24
2019-04-19T14:05:49.935Z,28.08
2019-04-19T14:08:17.456Z,28.43
2019-04-19T14:10:47.138Z,28.75
2019-04-19T14:13:14.876Z,28.78
2019-04-19T14:15:44.839Z,28.90
2019-04-19T14:18:17.120Z,28.82
2019-04-19T14:20:48.589Z,28.99
2019-04-19T14:23:13.267Z,29.01
2019-04-19T14:25:41.196Z,29.08
2019-04-19T14:28:09.403Z,29.08
2019-04-19T14:30:37.488Z,29.12
2019-04-19T14:33:08.405Z,29.19
2019-04-19T14:35:42.017Z,29.31
2019-04-19T14:38:09.492Z,29.51
2019-04-19T14:40:41.604Z,29.45
2019-04-19T14:43:08.868Z,29.50
2019-04-19T14:45:36.363Z,29.56
2019-04-19T14:48:06.772Z,29.11
2019-04-19T14:50:42.575Z,28.86
2019-04-19T14:53:03.601Z,29.19
2019-04-19T14:55:30.473Z,29.40
2019-04-19T14:57:57.163Z,29.38
2019-04-19T15:00:25.108Z,29.54
2019-04-19T15:03:02.840Z,29.75
2019-04-19T15:05:32.164Z,29.94
2019-04-19T15:07:58.938Z,30.18
2019-04-19T15:10:27.261Z,30.24
2019-04-19T15:12:54.576Z,29.53
2019-04-19T15:15:22.344Z,30.01
2019-04-19T15:17:49.630Z,30.39
2019-04-19T15:20:19.915Z,30.37
2019-04-19T15:22:47.489Z,30.66
2019-04-19T15:25:19.853Z,30.56
2019-04-19T15:27:47.154Z,30.71
2019-04-19T15:30:14.916Z,30.85
2019-04-19T15:32:42.416Z,30.90
2019-04-19T15:35:11.910Z,30.82
2019-04-19T15:37:41.674Z,31.00
2019-04-19T15:40:12.100Z,31.03
2019-04-19T15:42:38.986Z,31.06
2019-04-19T15:45:07.199Z,31.29
2019-04-19T15:47:42.588Z,31.37
2019-04-19T15:50:11.747Z,31.40
2019-04-19T15:52:39.898Z,31.18
2019-04-19T15:55:08.022Z,31.23
2019-04-19T15:57:36.264Z,31.28
2019-04-19T16:00:06.040Z,31.25
2019-04-19T16:02:53.886Z,31.14
2019-04-19T16:05:46.468Z,31.08
2019-04-19T16:08:22.651Z,31.26
2019-04-19T16:11:08.827Z,31.48
2019-04-19T16:13:36.151Z,31.16
2019-04-19T16:16:05.885Z,31.39
2019-04-19T16:18:36.136Z,31.22
2019-04-19T16:21:05.858Z,31.29
2019-04-19T16:23:32.630Z,31.31
2019-04-19T16:25:59.342Z,31.16
2019-04-19T16:28:27.428Z,30.49
2019-04-19T16:30:54.625Z,29.92
2019-04-19T16:33:22.096Z,29.55
2019-04-19T16:35:49.203Z,29.76
2019-04-19T16:38:16.390Z,30.13
2019-04-19T16:40:43.252Z,30.52
2019-04-19T16:43:11.220Z,30.94
2019-04-19T16:45:38.309Z,30.76
2019-04-19T16:48:06.634Z,31.05
2019-04-19T16:50:34.521Z,31.29
2019-04-19T16:53:04.388Z,31.22
2019-04-19T16:55:30.042Z,31.19
2019-04-19T16:57:57.149Z,31.35
2019-04-19T17:00:39.145Z,31.40
2019-04-19T17:03:07.055Z,31.17
2019-04-19T17:05:34.774Z,30.64
2019-04-19T17:08:01.690Z,30.57
2019-04-19T17:10:28.828Z,30.40
2019-04-19T17:12:55.908Z,30.08
2019-04-19T17:15:51.346Z,29.74
2019-04-19T17:18:26.932Z,29.26
2019-04-19T17:20:57.684Z,28.57
2019-04-19T17:23:24.571Z,28.31
2019-04-19T17:25:53.440Z,28.18
2019-04-19T17:28:21.143Z,28.06
2019-04-19T17:30:50.871Z,27.92
2019-04-19T17:33:17.963Z,27.65
2019-04-19T17:35:45.981Z,27.40
2019-04-19T17:38:25.001Z,27.18
2019-04-19T17:40:42.729Z,27.05
2019-04-19T17:43:09.842Z,26.40
2019-04-19T17:45:37.788Z,26.22
2019-04-19T17:48:04.877Z,26.02
2019-04-19T17:50:32.414Z,25.74
2019-04-19T17:53:00.338Z,25.68
2019-04-19T17:55:36.693Z,25.89
2019-04-19T17:58:01.264Z,25.79
2019-04-19T18:00:28.307Z,25.72
2019-04-19T18:03:01.479Z,25.69
2019-04-19T18:05:28.184Z,25.71
2019-04-19T18:07:56.041Z,25.60
2019-04-19T18:10:33.559Z,25.44
2019-04-19T18:12:53.236Z,25.48
2019-04-19T18:15:19.956Z,25.49
2019-04-19T18:17:54.250Z,25.47
2019-04-19T18:20:19.975Z,25.49
2019-04-19T18:22:58.168Z,25.29
2019-04-19T18:25:15.915Z,25.03
2019-04-19T18:27:48.645Z,25.02
2019-04-19T18:30:12.190Z,24.81
2019-04-19T18:32:47.889Z,24.44
2019-04-19T18:35:21.293Z,24.43
2019-04-19T18:37:45.773Z,24.51
2019-04-19T18:40:15.195Z,24.42
2019-04-19T18:42:53.122Z,24.33
2019-04-19T18:45:17.590Z,24.40
2019-04-19T18:47:43.215Z,24.44
2019-04-19T18:50:10.481Z,24.37
2019-04-19T18:52:48.515Z,24.27
2019-04-19T18:55:11.733Z,24.17
2019-04-19T18:57:39.483Z,24.12
2019-04-19T19:00:06.147Z,24.02
2019-04-19T19:02:34.367Z,23.96
2019-04-19T19:05:05.621Z,23.95
2019-04-19T19:07:31.163Z,23.88
2019-04-19T19:10:03.589Z,23.69
2019-04-19T19:12:26.719Z,23.72
2019-04-19T19:14:57.542Z,23.71
2019-04-19T19:17:23.870Z,23.61
2019-04-19T19:20:03.094Z,23.46
2019-04-19T19:22:32.078Z,23.29
2019-04-19T19:25:11.172Z,23.18
2019-04-19T19:27:25.587Z,23.14
2019-04-19T19:29:50.142Z,23.14
2019-04-19T19:32:19.494Z,23.00
2019-04-19T19:34:47.924Z,22.90
2019-04-19T19:37:20.758Z,22.98
2019-04-19T19:39:53.726Z,22.67
2019-04-19T19:44:53.590Z,22.50
2019-04-19T19:47:54.152Z,22.45
2019-04-19T19:50:27.983Z,22.46
2019-04-19T19:52:42.384Z,22.31
2019-04-19T19:55:11.522Z,22.30
2019-04-19T19:57:38.016Z,22.25
2019-04-19T20:00:04.326Z,22.18
2019-04-19T20:02:41.856Z,22.06
2019-04-19T20:04:53.375Z,21.92
2019-04-19T20:07:22.844Z,21.91
2019-04-19T20:09:55.341Z,21.70
2019-04-19T20:12:22.925Z,21.60
2019-04-19T20:14:47.279Z,21.39
2019-04-19T20:17:18.561Z,21.25
2019-04-19T20:19:48.890Z,21.22
2019-04-19T20:22:15.752Z,21.27
2019-04-19T20:24:54.980Z,21.11
2019-04-19T20:27:17.735Z,21.05
2019-04-19T20:29:43.809Z,21.01
2019-04-19T20:32:13.941Z,20.98
2019-04-19T20:34:39.009Z,20.86
2019-04-19T20:37:07.672Z,20.57
2019-04-19T20:39:37.579Z,20.42
2019-04-19T20:42:09.309Z,20.32
2019-04-19T20:44:53.349Z,20.40
2019-04-19T20:47:14.684Z,20.21
2019-04-19T20:49:43.772Z,19.93
2019-04-19T20:52:17.819Z,19.85
2019-04-19T20:55:00.222Z,19.70
2019-04-19T20:57:46.802Z,19.40
2019-04-19T21:00:02.577Z,18.96
2019-04-19T21:02:33.564Z,19.07
2019-04-19T21:04:59.175Z,19.24
2019-04-19T21:07:31.789Z,19.27
2019-04-19T21:10:04.051Z,19.21
2019-04-19T21:12:29.923Z,19.14
2019-04-19T21:15:09.383Z,19.24
2019-04-19T21:17:31.887Z,19.13
2019-04-19T21:19:52.679Z,19.02
2019-04-19T21:22:23.712Z,19.04
2019-04-19T21:25:04.973Z,19.05
2019-04-19T21:27:25.762Z,19.01
2019-04-19T21:29:50.011Z,18.83
2019-04-19T21:32:24.336Z,18.78
2019-04-19T21:34:45.958Z,18.68
2019-04-19T21:37:15.074Z,18.40
2019-04-19T21:39:50.619Z,18.32
2019-04-19T21:42:19.388Z,18.27
2019-04-19T21:44:53.074Z,18.18
2019-04-19T21:47:16.334Z,17.99
2019-04-19T21:49:47.934Z,17.83
2019-04-19T21:52:16.256Z,17.84
2019-04-19T21:54:42.065Z,17.95
2019-04-19T21:57:09.102Z,17.86
2019-04-19T21:59:40.707Z,17.85
2019-04-19T22:02:07.627Z,17.59
2019-04-19T22:04:42.742Z,17.47
2019-04-19T22:07:07.018Z,17.49
2019-04-19T22:09:32.571Z,17.35
2019-04-19T22:12:00.565Z,17.34
2019-04-19T22:14:31.319Z,17.37
2019-04-19T22:16:56.781Z,17.43
2019-04-19T22:19:29.441Z,17.25
2019-04-19T22:21:53.313Z,17.13
2019-04-19T22:24:26.057Z,17.10
2019-04-19T22:26:53.907Z,16.85
2019-04-19T22:29:19.694Z,16.59
2019-04-19T22:31:47.673Z,16.62
2019-04-19T22:34:14.808Z,16.67
2019-04-19T22:36:45.677Z,16.70
2019-04-19T22:39:11.638Z,16.66
2019-04-19T22:41:38.986Z,16.77
2019-04-19T22:44:06.968Z,16.55
2019-04-19T22:46:39.256Z,16.52
2019-04-19T22:49:06.768Z,16.52
2019-04-19T22:51:31.356Z,16.53
2019-04-19T22:53:58.814Z,16.50
2019-04-19T22:56:34.667Z,16.26
2019-04-19T22:58:58.145Z,16.27
2019-04-19T23:01:31.246Z,16.18
2019-04-19T23:04:05.515Z,15.92
2019-04-19T23:06:30.930Z,15.94
2019-04-19T23:09:00.965Z,16.02
2019-04-19T23:11:27.773Z,15.89
2019-04-19T23:13:55.683Z,15.82
2019-04-19T23:16:23.613Z,15.74
2019-04-19T23:18:55.313Z,15.59
2019-04-19T23:21:22.920Z,15.66
2019-04-19T23:23:49.143Z,15.54
2019-04-19T23:26:29.418Z,15.49
2019-04-19T23:28:49.514Z,15.49
2019-04-19T23:31:17.963Z,15.48
2019-04-19T23:33:50.043Z,15.48
2019-04-19T23:36:17.779Z,15.53
2019-04-19T23:38:43.290Z,15.41
2019-04-19T23:41:11.021Z,15.19
2019-04-19T23:43:41.968Z,14.98
2019-04-19T23:46:14.617Z,14.96
2019-04-19T23:48:37.327Z,15.11
2019-04-19T23:51:06.219Z,15.00
2019-04-19T23:53:37.386Z,15.05
2019-04-19T23:56:19.108Z,14.87
2019-04-19T23:58:39.586Z,14.83
